createdAt,value
2018-08-11T00:00:41.379Z,19.10
2018-08-11T00:03:09.735Z,18.80
2018-08-11T00:05:38.075Z,18.70
2018-08-11T00:08:06.472Z,18.60
2018-08-11T00:10:34.827Z,18.60
2018-08-11T00:13:03.247Z,18.70
2018-08-11T00:15:31.624Z,18.60
2018-08-11T00:18:00.020Z,18.70
2018-08-11T00:20:29.085Z,18.60
2018-08-11T00:22:57.492Z,18.80
2018-08-11T00:25:25.910Z,18.90
2018-08-11T00:27:54.298Z,19.00
2018-08-11T00:30:22.740Z,18.90
2018-08-11T00:32:51.156Z,18.90
2018-08-11T00:35:19.559Z,18.80
2018-08-11T00:37:47.964Z,18.80
2018-08-11T00:40:17.667Z,18.80
2018-08-11T00:42:47.091Z,18.80
2018-08-11T00:45:16.188Z,18.90
2018-08-11T00:47:44.602Z,18.60
2018-08-11T00:50:24.126Z,18.70
2018-08-11T00:52:52.890Z,18.80
2018-08-11T00:55:21.250Z,18.60
2018-08-11T00:57:49.770Z,18.50
2018-08-11T01:00:19.092Z,18.50
2018-08-11T01:02:47.646Z,18.50
2018-08-11T01:05:18.844Z,18.50
2018-08-11T01:07:47.659Z,18.50
2018-08-11T01:10:16.571Z,18.50
2018-08-11T01:12:45.758Z,18.40
2018-08-11T01:15:17.210Z,18.50
2018-08-11T01:17:46.233Z,18.40
2018-08-11T01:20:14.888Z,18.30
2018-08-11T01:22:44.009Z,18.30
2018-08-11T01:25:12.979Z,18.30
2018-08-11T01:27:41.435Z,18.20
2018-08-11T01:30:13.510Z,18.20
2018-08-11T01:32:41.893Z,18.20
2018-08-11T01:35:10.984Z,18.10
2018-08-11T01:37:40.015Z,18.10
2018-08-11T01:40:10.112Z,18.10
2018-08-11T01:42:38.791Z,18.10
2018-08-11T01:45:08.374Z,18.00
2018-08-11T01:47:36.809Z,18.00
2018-08-11T01:50:05.989Z,18.00
2018-08-11T01:52:34.459Z,18.00
2018-08-11T01:55:02.822Z,18.10
2018-08-11T01:57:31.202Z,18.00
2018-08-11T01:59:59.595Z,18.00
2018-08-11T02:02:28.008Z,18.00
2018-08-11T02:04:56.461Z,18.00
2018-08-11T02:07:24.811Z,18.10
2018-08-11T02:09:53.228Z,18.10
2018-08-11T02:12:21.772Z,18.20
2018-08-11T02:14:50.139Z,18.10
2018-08-11T02:17:18.528Z,18.10
2018-08-11T02:22:37.974Z,18.20
2018-08-11T02:25:07.463Z,18.10
2018-08-11T02:27:35.895Z,18.30
2018-08-11T02:30:06.637Z,18.10
2018-08-11T02:32:35.136Z,18.10
2018-08-11T02:35:03.726Z,18.00
2018-08-11T02:37:32.072Z,18.10
2018-08-11T02:40:00.498Z,18.10
2018-08-11T02:42:28.886Z,18.10
2018-08-11T02:44:57.263Z,18.00
2018-08-11T02:47:25.666Z,18.00
2018-08-11T02:49:54.016Z,18.00
2018-08-11T02:52:22.400Z,18.10
2018-08-11T02:54:50.737Z,18.00
2018-08-11T02:57:19.110Z,18.00
2018-08-11T02:59:47.519Z,17.90
2018-08-11T03:02:15.902Z,18.00
2018-08-11T03:04:44.290Z,17.90
2018-08-11T03:07:12.720Z,17.90
2018-08-11T03:09:41.106Z,17.90
2018-08-11T03:12:09.517Z,17.80
2018-08-11T03:14:37.910Z,17.70
2018-08-11T03:17:06.285Z,17.70
2018-08-11T03:19:34.653Z,17.60
2018-08-11T03:22:03.123Z,17.60
2018-08-11T03:24:31.502Z,17.50
2018-08-11T03:26:59.897Z,17.50
2018-08-11T03:29:28.234Z,17.50
2018-08-11T03:31:56.563Z,17.50
2018-08-11T03:34:24.923Z,17.40
2018-08-11T03:36:53.271Z,17.40
2018-08-11T03:39:21.614Z,17.40
2018-08-11T03:41:49.974Z,17.40
2018-08-11T03:44:18.347Z,17.50
2018-08-11T03:46:46.674Z,17.40
2018-08-11T03:49:14.977Z,17.50
2018-08-11T03:51:43.335Z,17.40
2018-08-11T03:54:11.665Z,17.40
2018-08-11T03:56:40.006Z,17.40
2018-08-11T03:59:08.411Z,17.30
2018-08-11T04:01:36.827Z,17.40
2018-08-11T04:04:05.283Z,17.30
2018-08-11T04:06:33.735Z,17.40
2018-08-11T04:09:02.061Z,17.40
2018-08-11T04:11:30.486Z,17.50
2018-08-11T04:13:58.789Z,17.50
2018-08-11T04:16:27.149Z,17.60
2018-08-11T04:18:55.467Z,17.60
2018-08-11T04:21:23.811Z,17.60
2018-08-11T04:23:52.257Z,17.50
2018-08-11T04:26:20.610Z,17.60
2018-08-11T04:28:48.921Z,17.60
2018-08-11T04:31:17.265Z,17.60
2018-08-11T04:33:45.606Z,17.60
2018-08-11T04:36:13.979Z,17.60
2018-08-11T04:38:42.327Z,17.60
2018-08-11T04:41:10.665Z,17.90
2018-08-11T04:43:39.013Z,17.70
2018-08-11T04:46:07.356Z,17.60
2018-08-11T04:48:35.746Z,17.60
2018-08-11T04:51:04.074Z,17.70
2018-08-11T04:53:32.406Z,17.60
2018-08-11T04:56:00.782Z,17.60
2018-08-11T04:58:29.136Z,17.60
2018-08-11T05:00:57.514Z,17.50
2018-08-11T05:03:25.841Z,17.50
2018-08-11T05:05:54.210Z,17.60
2018-08-11T05:08:22.596Z,17.60
2018-08-11T05:10:51.012Z,17.50
2018-08-11T05:13:19.364Z,17.50
2018-08-11T05:15:47.736Z,17.60
2018-08-11T05:18:16.178Z,17.80
2018-08-11T05:20:44.512Z,18.10
2018-08-11T05:23:13.043Z,18.30
2018-08-11T05:25:41.374Z,18.40
2018-08-11T05:28:09.722Z,19.20
2018-08-11T05:30:38.129Z,19.60
2018-08-11T05:33:06.926Z,20.40
2018-08-11T05:35:35.353Z,20.30
2018-08-11T05:38:03.751Z,20.60
2018-08-11T05:40:32.099Z,20.20
2018-08-11T05:43:00.510Z,19.90
2018-08-11T05:45:29.051Z,19.60
2018-08-11T05:47:57.431Z,19.40
2018-08-11T05:50:25.819Z,19.40
2018-08-11T05:52:54.163Z,19.70
2018-08-11T05:55:22.564Z,21.10
2018-08-11T05:57:50.951Z,21.90
2018-08-11T06:00:19.339Z,22.10
2018-08-11T06:02:47.659Z,22.40
2018-08-11T06:05:16.068Z,22.00
2018-08-11T06:07:44.500Z,20.90
2018-08-11T06:10:12.909Z,20.60
2018-08-11T06:12:41.314Z,21.10
2018-08-11T06:15:09.776Z,21.30
2018-08-11T06:17:38.134Z,21.20
2018-08-11T06:20:07.669Z,21.20
2018-08-11T06:22:36.092Z,21.60
2018-08-11T06:25:05.792Z,21.30
2018-08-11T06:27:34.204Z,21.90
2018-08-11T06:30:02.557Z,21.50
2018-08-11T06:32:30.910Z,21.90
2018-08-11T06:34:59.284Z,21.40
2018-08-11T06:37:27.636Z,21.30
2018-08-11T06:39:55.996Z,21.90
2018-08-11T06:42:24.358Z,22.40
2018-08-11T06:44:52.746Z,22.70
2018-08-11T06:47:21.295Z,22.60
2018-08-11T06:49:49.706Z,22.20
2018-08-11T06:52:18.058Z,22.50
2018-08-11T06:54:46.414Z,23.30
2018-08-11T06:57:14.771Z,23.40
2018-08-11T06:59:43.157Z,22.40
2018-08-11T07:02:11.728Z,22.30
2018-08-11T07:04:40.626Z,22.90
2018-08-11T07:07:09.135Z,23.80
2018-08-11T07:09:37.636Z,23.80
2018-08-11T07:12:06.090Z,24.00
2018-08-11T07:14:34.688Z,25.10
2018-08-11T07:17:03.264Z,26.90
2018-08-11T07:19:31.700Z,27.30
2018-08-11T07:22:00.475Z,26.60
2018-08-11T07:24:28.988Z,27.10
2018-08-11T07:26:57.478Z,25.90
2018-08-11T07:29:26.375Z,24.70
2018-08-11T07:31:54.894Z,24.30
2018-08-11T07:34:23.380Z,24.00
2018-08-11T07:36:51.980Z,24.20
2018-08-11T07:39:20.537Z,24.20
2018-08-11T07:41:49.087Z,24.70
2018-08-11T07:44:18.535Z,24.50
2018-08-11T07:46:47.031Z,25.10
2018-08-11T07:49:15.595Z,24.40
2018-08-11T07:51:44.058Z,24.40
2018-08-11T07:54:12.601Z,24.90
2018-08-11T07:56:41.133Z,25.20
2018-08-11T07:59:09.781Z,25.30
2018-08-11T08:01:38.364Z,26.20
2018-08-11T08:04:06.952Z,25.30
2018-08-11T08:06:35.590Z,25.50
2018-08-11T08:09:06.414Z,25.00
2018-08-11T08:11:34.904Z,25.20
2018-08-11T08:14:03.560Z,25.50
2018-08-11T08:16:32.150Z,24.30
2018-08-11T08:19:00.886Z,24.40
2018-08-11T08:21:29.381Z,24.90
2018-08-11T08:23:57.884Z,24.70
2018-08-11T08:26:26.544Z,25.00
2018-08-11T08:28:54.878Z,24.90
2018-08-11T08:31:23.341Z,25.10
2018-08-11T08:33:51.843Z,25.40
2018-08-11T08:36:20.262Z,26.10
2018-08-11T08:38:48.668Z,26.10
2018-08-11T08:41:17.323Z,25.60
2018-08-11T08:43:45.833Z,25.80
2018-08-11T08:46:14.331Z,25.60
2018-08-11T08:48:42.769Z,25.40
2018-08-11T08:51:11.171Z,25.50
2018-08-11T08:53:39.755Z,25.50
2018-08-11T08:56:08.299Z,25.50
2018-08-11T08:58:39.113Z,25.60
2018-08-11T09:01:07.736Z,26.30
2018-08-11T09:03:36.201Z,26.30
2018-08-11T09:06:04.711Z,26.10
2018-08-11T09:08:33.273Z,25.50
2018-08-11T09:11:01.728Z,25.80
2018-08-11T09:13:30.289Z,25.80
2018-08-11T09:15:58.838Z,25.90
2018-08-11T09:18:27.396Z,25.70
2018-08-11T09:21:00.776Z,26.10
2018-08-11T09:23:29.337Z,27.40
2018-08-11T09:25:57.987Z,27.50
2018-08-11T09:28:29.670Z,27.50
2018-08-11T09:30:58.121Z,27.50
2018-08-11T09:33:26.561Z,27.60
2018-08-11T09:35:55.083Z,27.70
2018-08-11T09:38:23.709Z,26.20
2018-08-11T09:40:52.216Z,26.20
2018-08-11T09:43:20.713Z,27.50
2018-08-11T09:45:49.335Z,28.40
2018-08-11T09:48:17.739Z,27.80
2018-08-11T09:50:46.217Z,28.40
2018-08-11T09:53:14.671Z,31.10
2018-08-11T09:55:43.154Z,32.00
2018-08-11T09:58:11.627Z,30.30
2018-08-11T10:00:45.503Z,28.50
2018-08-11T10:03:14.132Z,28.30
2018-08-11T10:05:42.729Z,27.50
2018-08-11T10:08:11.302Z,28.00
2018-08-11T10:10:39.974Z,27.00
2018-08-11T10:13:08.479Z,26.80
2018-08-11T10:15:37.144Z,27.20
2018-08-11T10:18:06.171Z,29.00
2018-08-11T10:20:34.804Z,30.00
2018-08-11T10:23:03.518Z,29.00
2018-08-11T10:25:32.034Z,29.30
2018-08-11T10:28:00.636Z,27.60
2018-08-11T10:30:29.247Z,26.80
2018-08-11T10:32:57.730Z,27.00
2018-08-11T10:35:26.330Z,26.10
2018-08-11T10:37:54.912Z,26.80
2018-08-11T10:40:23.437Z,25.90
2018-08-11T10:42:52.025Z,25.80
2018-08-11T10:45:20.633Z,26.10
2018-08-11T10:47:51.042Z,26.20
2018-08-11T10:50:19.665Z,25.90
2018-08-11T10:52:48.161Z,25.50
2018-08-11T10:55:20.180Z,25.60
2018-08-11T10:57:48.769Z,27.20
2018-08-11T11:00:17.413Z,28.40
2018-08-11T11:02:46.132Z,28.10
2018-08-11T11:05:14.818Z,28.90
2018-08-11T11:07:43.757Z,28.90
2018-08-11T11:10:12.318Z,27.90
2018-08-11T11:12:40.861Z,26.60
2018-08-11T11:15:10.006Z,28.50
2018-08-11T11:17:38.985Z,28.90
2018-08-11T11:20:09.510Z,29.50
2018-08-11T11:22:38.479Z,29.40
2018-08-11T11:25:07.138Z,28.00
2018-08-11T11:27:35.998Z,29.70
2018-08-11T11:30:05.060Z,29.40
2018-08-11T11:32:33.676Z,29.00
2018-08-11T11:35:02.312Z,30.60
2018-08-11T11:37:31.010Z,30.90
2018-08-11T11:39:59.673Z,30.90
2018-08-11T11:42:28.268Z,30.10
2018-08-11T11:44:56.865Z,30.40
2018-08-11T11:47:25.467Z,31.00
2018-08-11T11:49:53.981Z,30.80
2018-08-11T11:52:22.599Z,30.60
2018-08-11T11:54:51.123Z,30.10
2018-08-11T11:57:20.280Z,29.70
2018-08-11T11:59:48.884Z,29.70
2018-08-11T12:02:17.444Z,28.00
2018-08-11T12:04:46.322Z,28.30
2018-08-11T12:07:15.370Z,29.20
2018-08-11T12:09:43.778Z,28.90
2018-08-11T12:12:12.196Z,27.30
2018-08-11T12:14:40.646Z,28.80
2018-08-11T12:17:09.172Z,29.20
2018-08-11T12:19:37.550Z,30.20
2018-08-11T12:22:05.956Z,29.00
2018-08-11T12:24:35.051Z,29.00
2018-08-11T12:27:03.804Z,29.30
2018-08-11T12:29:33.620Z,29.90
2018-08-11T12:32:02.092Z,30.10
2018-08-11T12:34:30.440Z,29.70
2018-08-11T12:36:58.874Z,29.30
2018-08-11T12:39:27.332Z,29.60
2018-08-11T12:41:56.016Z,31.00
2018-08-11T12:44:24.388Z,30.60
2018-08-11T12:46:52.926Z,30.30
2018-08-11T12:49:21.367Z,30.40
2018-08-11T12:51:49.737Z,30.20
2018-08-11T12:54:18.967Z,29.80
2018-08-11T12:56:47.384Z,30.20
2018-08-11T12:59:15.795Z,30.70
2018-08-11T13:01:44.283Z,29.70
2018-08-11T13:04:12.667Z,29.70
2018-08-11T13:06:41.033Z,29.60
2018-08-11T13:09:10.367Z,29.20
2018-08-11T13:11:38.966Z,28.90
2018-08-11T13:14:07.724Z,28.80
2018-08-11T13:16:36.289Z,29.10
2018-08-11T13:19:04.711Z,29.20
2018-08-11T13:21:33.117Z,27.70
2018-08-11T13:24:01.520Z,27.60
2018-08-11T13:26:29.939Z,28.10
2018-08-11T13:28:58.383Z,28.30
2018-08-11T13:31:26.901Z,28.90
2018-08-11T13:33:55.479Z,28.70
2018-08-11T13:36:24.005Z,28.40
2018-08-11T13:38:52.520Z,28.30
2018-08-11T13:41:20.990Z,28.20
2018-08-11T13:43:49.797Z,28.30
2018-08-11T13:46:18.543Z,28.30
2018-08-11T13:48:47.200Z,28.60
2018-08-11T13:51:40.750Z,27.90
2018-08-11T13:54:09.257Z,28.30
2018-08-11T13:56:38.608Z,28.30
2018-08-11T13:59:07.275Z,28.30
2018-08-11T14:01:36.067Z,27.90
2018-08-11T14:04:04.626Z,28.00
2018-08-11T14:06:33.620Z,28.10
2018-08-11T14:09:02.122Z,27.70
2018-08-11T14:11:30.594Z,27.10
2018-08-11T14:13:59.050Z,26.70
2018-08-11T14:16:27.504Z,26.60
2018-08-11T14:18:56.108Z,26.90
2018-08-11T14:21:24.745Z,27.20
2018-08-11T14:23:54.092Z,27.10
2018-08-11T14:26:22.646Z,27.40
2018-08-11T14:28:53.309Z,26.80
2018-08-11T14:31:21.878Z,26.40
2018-08-11T14:33:50.360Z,26.70
2018-08-11T14:36:18.904Z,26.80
2018-08-11T14:38:47.515Z,27.10
2018-08-11T14:41:15.988Z,27.20
2018-08-11T14:43:44.411Z,27.20
2018-08-11T14:46:12.878Z,26.40
2018-08-11T14:48:41.476Z,26.40
2018-08-11T14:51:11.120Z,26.20
2018-08-11T14:53:43.745Z,25.80
2018-08-11T14:56:13.313Z,25.80
2018-08-11T15:02:04.123Z,26.80
2018-08-11T15:04:32.575Z,26.80
2018-08-11T15:07:00.983Z,26.80
2018-08-11T15:09:29.445Z,26.70
2018-08-11T15:11:57.870Z,26.60
2018-08-11T15:14:26.363Z,26.40
2018-08-11T15:16:54.849Z,26.30
2018-08-11T15:19:23.304Z,26.20
2018-08-11T15:21:51.765Z,26.40
2018-08-11T15:24:20.183Z,26.20
2018-08-11T15:26:48.588Z,25.90
2018-08-11T15:29:17.055Z,26.00
2018-08-11T15:31:45.480Z,25.70
2018-08-11T15:34:13.959Z,25.80
2018-08-11T15:36:42.384Z,25.70
2018-08-11T15:39:12.460Z,25.50
2018-08-11T15:41:41.082Z,25.50
2018-08-11T15:44:09.568Z,25.10
2018-08-11T15:46:38.111Z,25.20
2018-08-11T15:49:06.565Z,25.10
2018-08-11T15:51:34.964Z,25.10
2018-08-11T15:54:03.452Z,25.60
2018-08-11T15:56:31.956Z,25.70
2018-08-11T15:59:02.522Z,25.70
2018-08-11T16:01:30.998Z,25.20
2018-08-11T16:03:59.442Z,25.20
2018-08-11T16:06:27.882Z,25.10
2018-08-11T16:08:56.321Z,24.90
2018-08-11T16:11:24.924Z,24.70
2018-08-11T16:13:53.338Z,24.60
2018-08-11T16:16:21.724Z,24.50
2018-08-11T16:18:50.117Z,24.70
2018-08-11T16:21:18.534Z,24.70
2018-08-11T16:23:47.060Z,24.70
2018-08-11T16:26:15.556Z,24.70
2018-08-11T16:28:44.034Z,24.50
2018-08-11T16:31:12.583Z,24.40
2018-08-11T16:33:41.004Z,24.20
2018-08-11T16:36:09.405Z,24.10
2018-08-11T16:38:37.840Z,24.10
2018-08-11T16:41:06.619Z,23.90
2018-08-11T16:43:35.067Z,24.20
2018-08-11T16:46:03.465Z,24.20
2018-08-11T16:48:31.922Z,24.20
2018-08-11T16:51:00.330Z,24.10
2018-08-11T16:53:28.727Z,24.20
2018-08-11T16:55:57.021Z,24.10
2018-08-11T16:58:25.445Z,23.80
2018-08-11T17:00:53.942Z,23.90
2018-08-11T17:03:22.293Z,23.90
2018-08-11T17:05:50.750Z,23.80
2018-08-11T17:08:19.105Z,23.70
2018-08-11T17:10:56.647Z,23.50
2018-08-11T17:13:25.021Z,23.60
2018-08-11T17:15:53.445Z,23.60
2018-08-11T17:18:21.807Z,23.50
2018-08-11T17:20:50.324Z,23.40
2018-08-11T17:23:18.628Z,23.30
2018-08-11T17:25:47.132Z,23.40
2018-08-11T17:28:15.492Z,23.40
2018-08-11T17:30:47.803Z,23.30
2018-08-11T17:33:16.221Z,23.20
2018-08-11T17:35:44.727Z,23.00
2018-08-11T17:38:13.164Z,23.00
2018-08-11T17:40:41.548Z,23.10
2018-08-11T17:43:10.065Z,22.90
2018-08-11T17:45:38.560Z,22.90
2018-08-11T17:48:07.094Z,22.70
2018-08-11T17:50:35.600Z,22.90
2018-08-11T17:53:04.155Z,22.60
2018-08-11T17:55:32.848Z,22.70
2018-08-11T17:58:01.238Z,22.60
2018-08-11T18:00:29.652Z,22.70
2018-08-11T18:02:58.124Z,22.50
2018-08-11T18:05:26.564Z,22.30
2018-08-11T18:07:55.049Z,22.20
2018-08-11T18:10:23.604Z,22.30
2018-08-11T18:12:52.136Z,22.20
2018-08-11T18:15:20.602Z,22.10
2018-08-11T18:17:49.091Z,22.00
2018-08-11T18:20:17.565Z,22.10
2018-08-11T18:22:46.091Z,22.00
2018-08-11T18:25:14.540Z,21.80
2018-08-11T18:27:42.947Z,21.70
2018-08-11T18:30:11.711Z,21.80
2018-08-11T18:32:40.133Z,21.90
2018-08-11T18:35:08.985Z,21.70
2018-08-11T18:37:37.508Z,21.70
2018-08-11T18:40:06.325Z,21.60
2018-08-11T18:42:34.792Z,21.50
2018-08-11T18:45:03.308Z,21.40
2018-08-11T18:47:31.787Z,21.50
2018-08-11T18:50:00.409Z,21.40
2018-08-11T18:52:28.958Z,21.20
2018-08-11T18:54:57.442Z,21.20
2018-08-11T18:57:25.908Z,21.20
2018-08-11T18:59:54.418Z,21.10
2018-08-11T19:02:22.997Z,21.00
2018-08-11T19:04:51.480Z,20.90
2018-08-11T19:07:21.206Z,20.90
2018-08-11T19:09:49.680Z,21.00
2018-08-11T19:12:18.195Z,20.80
2018-08-11T19:14:46.662Z,20.80
2018-08-11T19:17:15.264Z,20.80
2018-08-11T19:19:43.783Z,20.60
2018-08-11T19:22:12.199Z,20.50
2018-08-11T19:24:40.669Z,20.40
2018-08-11T19:27:09.131Z,20.50
2018-08-11T19:29:37.548Z,20.40
2018-08-11T19:32:06.521Z,20.50
2018-08-11T19:34:35.019Z,20.20
2018-08-11T19:37:05.753Z,20.50
2018-08-11T19:39:34.208Z,20.30
2018-08-11T19:42:02.735Z,20.10
2018-08-11T19:44:31.255Z,20.20
2018-08-11T19:46:59.733Z,20.10
2018-08-11T19:49:28.192Z,20.00
2018-08-11T19:51:56.649Z,19.90
2018-08-11T19:54:25.195Z,19.80
2018-08-11T19:56:53.739Z,19.80
2018-08-11T19:59:22.231Z,19.60
2018-08-11T20:01:50.663Z,19.80
2018-08-11T20:04:19.133Z,19.70
2018-08-11T20:06:47.688Z,19.60
2018-08-11T20:09:16.198Z,19.70
2018-08-11T20:11:44.714Z,19.60
2018-08-11T20:14:13.177Z,19.40
2018-08-11T20:16:41.722Z,19.50
2018-08-11T20:19:10.395Z,19.40
2018-08-11T20:21:38.768Z,19.60
2018-08-11T20:24:07.440Z,19.50
2018-08-11T20:26:36.031Z,19.40
2018-08-11T20:29:04.864Z,19.40
2018-08-11T20:31:33.324Z,19.20
2018-08-11T20:34:01.762Z,19.30
2018-08-11T20:36:30.187Z,19.40
2018-08-11T20:39:05.506Z,19.30
2018-08-11T20:41:33.960Z,19.20
2018-08-11T20:44:02.518Z,19.30
2018-08-11T20:46:31.047Z,19.20
2018-08-11T20:48:59.700Z,19.10
2018-08-11T20:51:28.660Z,19.00
2018-08-11T20:53:57.209Z,19.00
2018-08-11T20:56:25.675Z,19.00
2018-08-11T20:58:54.175Z,18.90
2018-08-11T21:01:22.607Z,18.90
2018-08-11T21:03:51.112Z,18.90
2018-08-11T21:06:22.352Z,19.00
2018-08-11T21:08:50.815Z,19.00
2018-08-11T21:11:19.281Z,19.00
2018-08-11T21:13:47.775Z,19.00
2018-08-11T21:16:16.203Z,19.00
2018-08-11T21:18:44.724Z,18.70
2018-08-11T21:21:13.306Z,18.70
2018-08-11T21:23:41.769Z,18.50
2018-08-11T21:26:10.475Z,18.40
2018-08-11T21:28:38.942Z,18.40
2018-08-11T21:31:07.360Z,18.40
2018-08-11T21:33:36.364Z,18.10
2018-08-11T21:36:04.817Z,18.10
2018-08-11T21:38:33.504Z,18.10
2018-08-11T21:41:01.937Z,17.90
2018-08-11T21:43:31.140Z,17.80
2018-08-11T21:45:59.767Z,17.80
2018-08-11T21:48:28.242Z,17.70
2018-08-11T21:50:56.976Z,17.70
2018-08-11T21:53:25.384Z,17.60
2018-08-11T21:55:53.824Z,17.70
2018-08-11T21:58:22.178Z,17.70
2018-08-11T22:00:56.546Z,17.60
2018-08-11T22:03:24.980Z,17.80
2018-08-11T22:05:53.347Z,17.60
2018-08-11T22:08:22.040Z,18.50
2018-08-11T22:10:50.430Z,17.80
2018-08-11T22:13:18.840Z,17.70
2018-08-11T22:15:47.197Z,17.40
2018-08-11T22:18:15.564Z,17.10
2018-08-11T22:20:43.950Z,17.20
2018-08-11T22:23:12.353Z,17.40
2018-08-11T22:25:40.756Z,17.30
2018-08-11T22:28:09.186Z,17.30
2018-08-11T22:30:37.624Z,17.10
2018-08-11T22:33:06.486Z,17.00
2018-08-11T22:35:34.897Z,17.20
2018-08-11T22:38:03.322Z,16.90
2018-08-11T22:40:31.828Z,16.90
2018-08-11T22:43:00.210Z,17.00
2018-08-11T22:45:28.575Z,17.00
2018-08-11T22:47:56.970Z,16.90
2018-08-11T22:50:25.372Z,17.10
2018-08-11T22:52:53.847Z,16.80
2018-08-11T22:55:22.197Z,16.70
2018-08-11T22:57:50.902Z,16.60
2018-08-11T23:00:20.810Z,16.70
2018-08-11T23:02:49.221Z,16.70
2018-08-11T23:05:19.043Z,16.70
2018-08-11T23:07:47.421Z,16.70
2018-08-11T23:10:16.346Z,16.70
2018-08-11T23:12:45.599Z,16.60
2018-08-11T23:15:16.147Z,16.70
2018-08-11T23:17:45.702Z,16.50
2018-08-11T23:20:14.665Z,16.60
2018-08-11T23:22:43.022Z,17.00
2018-08-11T23:25:11.835Z,17.10
2018-08-11T23:27:40.227Z,16.90
2018-08-11T23:30:11.259Z,16.70
2018-08-11T23:32:40.382Z,16.90
2018-08-11T23:35:08.981Z,16.60
2018-08-11T23:37:37.385Z,16.60
2018-08-11T23:40:06.240Z,16.80
2018-08-11T23:42:34.731Z,16.70
2018-08-11T23:45:03.214Z,16.60
2018-08-11T23:47:31.605Z,16.60
2018-08-11T23:49:59.979Z,16.60
2018-08-11T23:52:28.336Z,16.60
2018-08-11T23:54:56.704Z,16.40
2018-08-11T23:57:25.087Z,17.80
2018-08-11T23:59:53.466Z,17.00
